createdAt,value
2018-05-07T00:00:55.153Z,56.4
2018-05-07T00:17:37.738Z,56.8
2018-05-07T00:34:20.233Z,57.6
2018-05-07T00:51:02.358Z,58.4
2018-05-07T01:07:43.962Z,59.2
2018-05-07T01:24:25.912Z,59.2
2018-05-07T01:41:07.412Z,59.6
2018-05-07T01:57:48.432Z,60.0
2018-05-07T02:14:29.441Z,60.8
2018-05-07T02:31:10.319Z,61.2
2018-05-07T02:47:50.749Z,61.6
2018-05-07T03:04:31.165Z,62.4
2018-05-07T03:21:11.503Z,62.4
2018-05-07T03:37:51.642Z,62.8
2018-05-07T03:54:31.989Z,63.2
2018-05-07T04:11:11.742Z,63.6
2018-05-07T04:27:52.131Z,63.6
2018-05-07T04:44:31.381Z,63.2
2018-05-07T05:01:12.682Z,63.2
2018-05-07T05:17:52.911Z,62.4
2018-05-07T05:31:13.828Z,62.4
2018-05-07T05:44:36.888Z,61.6
2018-05-07T05:57:56.828Z,60.8
2018-05-07T06:07:58.765Z,58.8
2018-05-07T06:21:21.039Z,58.0
2018-05-07T06:31:23.449Z,56.8
2018-05-07T06:44:46.634Z,55.6
2018-05-07T07:01:31.487Z,54.0
2018-05-07T07:18:16.513Z,52.8
2018-05-07T07:35:02.819Z,51.6
2018-05-07T07:51:47.945Z,50.4
2018-05-07T08:08:34.798Z,49.2
2018-05-07T08:18:38.646Z,48.4
2018-05-07T08:32:04.517Z,46.4
2018-05-07T08:48:51.545Z,46.8
2018-05-07T09:02:17.598Z,46.8
2018-05-07T09:15:44.133Z,44.8
2018-05-07T09:32:32.965Z,43.6
2018-05-07T09:49:21.891Z,42.0
2018-05-07T10:06:10.435Z,42.4
2018-05-07T10:22:59.255Z,41.2
2018-05-07T10:39:48.670Z,40.0
2018-05-07T10:56:38.443Z,39.6
2018-05-07T11:10:06.629Z,37.6
2018-05-07T11:26:56.327Z,37.6
2018-05-07T11:43:46.884Z,37.6
2018-05-07T12:00:37.644Z,36.4
2018-05-07T12:14:06.802Z,36.8
2018-05-07T12:30:56.904Z,36.8
2018-05-07T12:41:03.799Z,34.8
2018-05-07T12:57:55.477Z,35.2
2018-05-07T13:14:46.819Z,34.8
2018-05-07T13:31:38.623Z,34.4
2018-05-07T13:48:30.918Z,34.0
2018-05-07T14:05:23.030Z,31.6
2018-05-07T14:22:15.631Z,31.6
2018-05-07T14:39:07.002Z,30.0
2018-05-07T14:56:00.130Z,30.8
2018-05-07T15:12:51.643Z,31.2
2018-05-07T15:29:44.000Z,30.8
2018-05-07T15:46:36.312Z,30.8
2018-05-07T16:03:28.947Z,30.8
2018-05-07T16:20:22.499Z,30.0
2018-05-07T16:37:15.395Z,28.8
2018-05-07T16:47:24.085Z,28.4
2018-05-07T16:59:14.509Z,28.0
2018-05-07T17:16:11.362Z,27.6
2018-05-07T17:21:16.010Z,27.2
2018-05-07T17:26:20.645Z,27.6
2018-05-07T17:31:25.011Z,27.6
2018-05-07T17:36:29.024Z,28.4
2018-05-07T17:43:13.706Z,28.8
2018-05-07T17:53:20.749Z,29.2
2018-05-07T18:03:27.669Z,31.2
2018-05-07T18:13:33.786Z,33.6
2018-05-07T18:23:45.481Z,35.6
2018-05-07T18:33:45.204Z,38.4
2018-05-07T18:50:34.591Z,39.6
2018-05-07T19:00:39.624Z,40.0
2018-05-07T19:17:28.361Z,41.2
2018-05-07T19:27:32.305Z,42.4
2018-05-07T19:44:19.772Z,44.0
2018-05-07T19:57:45.227Z,44.8
2018-05-07T20:14:31.742Z,46.0
2018-05-07T20:31:17.864Z,46.8
2018-05-07T20:48:03.764Z,48.0
2018-05-07T21:04:49.499Z,48.0
2018-05-07T21:21:34.505Z,48.4
2018-05-07T21:38:19.734Z,49.2
2018-05-07T21:55:04.393Z,49.2
2018-05-07T22:11:50.755Z,50.0
2018-05-07T22:28:33.180Z,50.8
2018-05-07T22:45:17.485Z,51.6
2018-05-07T23:02:01.157Z,52.0
2018-05-07T23:18:44.740Z,52.4
2018-05-07T23:35:28.284Z,52.8
2018-05-07T23:52:12.115Z,53.6
